Погода Калкинина 2 недели

Кампече, Мексика

24 февраля-07 марта
  • 24февраля
    Сегодня
    +15°
    +33°
    Практически безоблачно
    ВремяПогодаТемператураВлажностьДавлениеВетер, м/сВероятность осадков
    00:00Ясно и безоблачно+20°C90 %761 мм2.3 м/с2 %
    03:00Практически безоблачно+18°C96 %761 мм1.9 м/с2 %
    06:00Облачно с прояснениями+18°C96 %762 мм1.4 м/с2 %
    09:00Ясно и безоблачно+24°C66 %764 мм2.6 м/с2 %
    12:00Практически безоблачно+30°C41 %763 мм2.7 м/с2 %
    15:00Практически безоблачно+32°C34 %761 мм3.1 м/с2 %
    18:00Ясно и безоблачно+26°C53 %763 мм4.4 м/с2 %
    21:00Ясно и безоблачно+22°C70 %764 мм2.8 м/с2 %
  • 25февраля
    Воскресенье
    +16°
    +33°
    Ясно и безоблачно
    ВремяПогодаТемператураВлажностьДавлениеВетер, м/сВероятность осадков
    00:00Ясно и безоблачно+18°C84 %764 мм1.9 м/с2 %
    03:00Ясно и безоблачно+16°C92 %764 мм1.8 м/с2 %
    06:00Ясно и безоблачно+16°C95 %764 мм1.9 м/с2 %
    09:00Ясно и безоблачно+23°C57 %765 мм3.0 м/с2 %
    12:00Ясно и безоблачно+30°C32 %764 мм2.2 м/с2 %
    15:00Ясно и безоблачно+32°C26 %761 мм1.4 м/с2 %
    18:00Ясно и безоблачно+28°C35 %762 мм2.5 м/с2 %
    21:00Ясно и безоблачно+23°C65 %764 мм4.1 м/с2 %
  • 26февраля
    Понедельник
    +17°
    +34°
    Ясно и безоблачно
    ВремяПогодаТемператураВлажностьДавлениеВетер, м/сВероятность осадков
    00:00Ясно и безоблачно+20°C71 %763 мм3.6 м/с2 %
    03:00Ясно и безоблачно+18°C81 %763 мм2.7 м/с2 %
    06:00Ясно и безоблачно+17°C90 %763 мм2.8 м/с2 %
    09:00Ясно и безоблачно+24°C62 %764 мм3.5 м/с2 %
    12:00Ясно и безоблачно+31°C37 %763 мм2.3 м/с2 %
    15:00Ясно и безоблачно+34°C27 %760 мм1.9 м/с2 %
    18:00Ясно и безоблачно+29°C34 %760 мм2.8 м/с2 %
    21:00Ясно и безоблачно+25°C49 %761 мм3.0 м/с2 %
  • 27февраля
    Вторник
    +18°
    +35°
    Практически безоблачно
    ВремяПогодаТемператураВлажностьДавлениеВетер, м/сВероятность осадков
    00:00Ясно и безоблачно+21°C63 %761 мм3.7 м/с2 %
    03:00Ясно и безоблачно+18°C72 %760 мм3.2 м/с2 %
    06:00Ясно и безоблачно+18°C82 %761 мм3.1 м/с2 %
    09:00Ясно и безоблачно+24°C57 %762 мм4.2 м/с2 %
    12:00Ясно и безоблачно+32°C33 %760 мм3.8 м/с2 %
    15:00Практически безоблачно+35°C28 %757 мм3.4 м/с2 %
    18:00Ясно и безоблачно+30°C35 %758 мм2.2 м/с2 %
    21:00Ясно и безоблачно+26°C49 %759 мм4.8 м/с2 %
Мы используем cookies
Соглашаюсь